createdAt,value
2023-05-13T00:06:22.293Z,9.40
2023-05-13T00:08:50.487Z,7.90
2023-05-13T00:11:18.109Z,11.10
2023-05-13T00:13:45.711Z,10.82
2023-05-13T00:16:13.794Z,9.55
2023-05-13T00:18:41.956Z,9.85
2023-05-13T00:21:09.716Z,12.02
2023-05-13T00:23:38.100Z,7.43
2023-05-13T00:26:05.698Z,10.52
2023-05-13T00:28:34.445Z,7.30
2023-05-13T00:31:01.915Z,6.63
2023-05-13T00:33:29.512Z,9.90
2023-05-13T00:35:57.211Z,6.38
2023-05-13T00:38:24.661Z,8.30
2023-05-13T00:40:52.995Z,12.32
2023-05-13T00:43:21.672Z,10.57
2023-05-13T00:45:50.537Z,12.02
2023-05-13T00:48:25.315Z,10.27
2023-05-13T00:50:53.360Z,11.68
2023-05-13T00:53:25.418Z,10.48
2023-05-13T00:55:53.410Z,8.27
2023-05-13T00:58:22.356Z,9.63
2023-05-13T01:00:53.398Z,7.45
2023-05-13T01:03:26.120Z,9.15
2023-05-13T01:06:05.288Z,12.07
2023-05-13T01:08:35.734Z,10.35
2023-05-13T01:11:05.864Z,10.75
2023-05-13T01:13:39.952Z,12.52
2023-05-13T01:16:12.407Z,8.50
2023-05-13T01:18:45.393Z,13.02
2023-05-13T01:21:15.867Z,12.10
2023-05-13T01:23:44.346Z,12.07
2023-05-13T01:26:12.033Z,10.45
2023-05-13T01:28:40.712Z,13.35
2023-05-13T01:31:10.973Z,15.02
2023-05-13T01:33:41.020Z,11.45
2023-05-13T01:36:09.111Z,10.43
2023-05-13T01:38:40.317Z,9.02
2023-05-13T01:41:08.285Z,8.50
2023-05-13T01:43:36.863Z,9.43
2023-05-13T01:46:05.066Z,12.93
2023-05-13T01:48:32.871Z,11.88
2023-05-13T01:51:04.835Z,9.02
2023-05-13T01:53:32.628Z,9.73
2023-05-13T01:56:02.747Z,9.75
2023-05-13T01:58:30.542Z,18.92
2023-05-13T02:00:58.546Z,9.35
2023-05-13T02:03:26.145Z,9.57
2023-05-13T02:05:54.040Z,8.65
2023-05-13T02:08:25.621Z,11.40
2023-05-13T02:10:57.103Z,10.85
2023-05-13T02:13:25.007Z,15.23
2023-05-13T02:15:52.642Z,10.50
2023-05-13T02:18:23.996Z,12.93
2023-05-13T02:20:54.664Z,10.38
2023-05-13T02:23:22.743Z,8.40
2023-05-13T02:25:51.858Z,9.30
2023-05-13T02:28:24.671Z,10.80
2023-05-13T02:30:52.782Z,12.52
2023-05-13T02:33:21.464Z,10.60
2023-05-13T02:35:50.557Z,9.73
2023-05-13T02:38:18.642Z,10.27
2023-05-13T02:40:48.294Z,19.63
2023-05-13T02:43:16.098Z,10.60
2023-05-13T02:45:52.668Z,12.27
2023-05-13T02:48:22.026Z,10.23
2023-05-13T02:50:51.854Z,12.57
2023-05-13T02:55:54.774Z,12.45
2023-05-13T02:58:26.425Z,9.98
2023-05-13T03:00:55.177Z,18.92
2023-05-13T03:03:25.157Z,13.20
2023-05-13T03:05:53.348Z,10.98
2023-05-13T03:08:21.395Z,11.48
2023-05-13T03:10:48.993Z,13.88
2023-05-13T03:13:18.468Z,11.45
2023-05-13T03:15:46.305Z,20.35
2023-05-13T03:18:14.104Z,16.25
2023-05-13T03:20:42.055Z,11.80
2023-05-13T03:23:09.972Z,14.55
2023-05-13T03:25:37.856Z,13.10
2023-05-13T03:28:05.567Z,11.95
2023-05-13T03:30:37.772Z,14.45
2023-05-13T03:33:10.437Z,15.68
2023-05-13T03:35:38.960Z,14.75
2023-05-13T03:38:07.527Z,15.25
2023-05-13T03:40:38.455Z,14.23
2023-05-13T03:43:06.794Z,17.27
2023-05-13T03:45:37.916Z,16.60
2023-05-13T03:48:10.097Z,12.30
2023-05-13T03:50:37.914Z,17.92
2023-05-13T03:53:05.700Z,13.73
2023-05-13T03:55:35.115Z,15.32
2023-05-13T03:58:11.586Z,13.52
2023-05-13T04:00:40.377Z,14.68
2023-05-13T04:03:08.371Z,12.63
2023-05-13T04:05:36.761Z,16.15
2023-05-13T04:08:04.402Z,16.20
2023-05-13T04:10:32.204Z,12.82
2023-05-13T04:12:59.913Z,16.05
2023-05-13T04:15:28.797Z,14.52
2023-05-13T04:17:56.379Z,13.85
2023-05-13T04:20:24.204Z,19.15
2023-05-13T04:22:55.046Z,15.45
2023-05-13T04:25:22.714Z,17.48
2023-05-13T04:27:52.098Z,14.88
2023-05-13T04:30:29.494Z,12.45
2023-05-13T04:32:57.553Z,14.23
2023-05-13T04:35:27.751Z,12.70
2023-05-13T04:37:59.719Z,16.20
2023-05-13T04:40:28.541Z,14.77
2023-05-13T04:43:06.155Z,14.00
2023-05-13T04:45:41.420Z,12.65
2023-05-13T04:48:12.100Z,12.68
2023-05-13T04:50:40.084Z,17.23
2023-05-13T04:53:09.242Z,14.55
2023-05-13T04:55:38.927Z,14.40
2023-05-13T04:58:06.965Z,14.52
2023-05-13T05:00:36.319Z,20.63
2023-05-13T05:03:03.955Z,16.48
2023-05-13T05:05:32.300Z,13.85
2023-05-13T05:08:01.906Z,12.52
2023-05-13T05:10:30.788Z,20.92
2023-05-13T05:15:29.940Z,16.92
2023-05-13T05:18:01.844Z,14.57
2023-05-13T05:20:29.974Z,11.93
2023-05-13T05:25:29.656Z,13.23
2023-05-13T05:27:58.212Z,15.57
2023-05-13T05:30:26.322Z,15.85
2023-05-13T05:33:02.564Z,13.70
2023-05-13T05:35:30.436Z,20.25
2023-05-13T05:37:58.723Z,13.80
2023-05-13T05:40:26.416Z,18.98
2023-05-13T05:42:57.196Z,23.10
2023-05-13T05:45:24.929Z,29.35
2023-05-13T05:47:54.202Z,28.77
2023-05-13T05:50:23.861Z,25.00
2023-05-13T05:52:54.212Z,22.30
2023-05-13T05:55:23.166Z,29.47
2023-05-13T05:58:05.414Z,26.08
2023-05-13T06:00:35.499Z,23.60
2023-05-13T06:03:08.058Z,24.70
2023-05-13T06:05:37.166Z,22.90
2023-05-13T06:08:05.214Z,22.48
2023-05-13T06:10:32.880Z,18.65
2023-05-13T06:13:00.398Z,18.98
2023-05-13T06:15:29.727Z,14.93
2023-05-13T06:18:04.806Z,17.33
2023-05-13T06:20:34.635Z,18.92
2023-05-13T06:23:02.255Z,19.55
2023-05-13T06:25:29.874Z,20.95
2023-05-13T06:28:08.836Z,17.05
2023-05-13T06:30:37.098Z,19.17
2023-05-13T06:33:04.723Z,21.27
2023-05-13T06:35:32.242Z,19.90
2023-05-13T06:38:02.943Z,15.60
2023-05-13T06:40:34.052Z,24.73
2023-05-13T06:43:04.587Z,20.80
2023-05-13T06:45:37.940Z,21.83
2023-05-13T06:48:05.775Z,18.48
2023-05-13T06:50:33.788Z,20.27
2023-05-13T06:53:03.227Z,17.67
2023-05-13T06:55:31.066Z,19.25
2023-05-13T06:57:58.512Z,20.85
2023-05-13T07:00:26.219Z,15.05
2023-05-13T07:02:53.960Z,19.58
2023-05-13T07:05:23.824Z,20.05
2023-05-13T07:07:53.851Z,23.40
2023-05-13T07:10:26.096Z,17.17
2023-05-13T07:12:53.993Z,18.52
2023-05-13T07:15:22.736Z,18.73
2023-05-13T07:17:54.798Z,18.55
2023-05-13T07:20:24.531Z,16.95
2023-05-13T07:22:53.423Z,15.50
2023-05-13T07:25:21.709Z,15.38
2023-05-13T07:27:50.656Z,14.48
2023-05-13T07:30:18.449Z,15.35
2023-05-13T07:32:45.987Z,15.00
2023-05-13T07:35:14.097Z,14.60
2023-05-13T07:37:41.658Z,13.75
2023-05-13T07:40:09.823Z,11.15
2023-05-13T07:42:37.414Z,13.85
2023-05-13T07:45:05.695Z,11.68
2023-05-13T07:47:34.419Z,14.05
2023-05-13T07:50:02.465Z,12.75
2023-05-13T07:52:30.576Z,10.98
2023-05-13T07:54:58.853Z,16.20
2023-05-13T07:57:26.654Z,12.95
2023-05-13T07:59:54.782Z,16.30
2023-05-13T08:02:22.678Z,11.18
2023-05-13T08:04:51.747Z,13.38
2023-05-13T08:07:23.347Z,11.93
2023-05-13T08:09:53.882Z,14.18
2023-05-13T08:12:25.620Z,11.07
2023-05-13T08:14:54.085Z,15.10
2023-05-13T08:17:22.986Z,13.73
2023-05-13T08:19:51.818Z,9.70
2023-05-13T08:22:20.744Z,14.95
2023-05-13T08:24:48.863Z,13.32
2023-05-13T08:27:17.840Z,10.55
2023-05-13T08:29:45.964Z,13.63
2023-05-13T08:32:13.566Z,10.55
2023-05-13T08:34:41.454Z,14.77
2023-05-13T08:37:09.036Z,9.48
2023-05-13T08:39:36.549Z,13.32
2023-05-13T08:42:05.251Z,14.85
2023-05-13T08:44:33.330Z,11.20
2023-05-13T08:47:17.477Z,8.85
2023-05-13T08:49:46.735Z,7.38
2023-05-13T08:52:14.417Z,8.57
2023-05-13T08:54:44.324Z,8.95
2023-05-13T08:57:15.082Z,10.27
2023-05-13T08:59:42.538Z,15.20
2023-05-13T09:02:10.726Z,14.60
2023-05-13T09:04:41.552Z,8.60
2023-05-13T09:07:09.651Z,10.00
2023-05-13T09:09:38.549Z,10.88
2023-05-13T09:12:06.398Z,9.15
2023-05-13T09:14:34.345Z,10.48
2023-05-13T09:17:02.643Z,8.95
2023-05-13T09:19:31.326Z,7.82
2023-05-13T09:21:59.523Z,8.32
2023-05-13T09:24:27.174Z,8.63
2023-05-13T09:26:55.565Z,10.20
2023-05-13T09:29:24.374Z,6.57
2023-05-13T09:31:54.105Z,7.43
2023-05-13T09:34:32.853Z,10.48
2023-05-13T09:37:09.636Z,10.27
2023-05-13T09:39:41.796Z,8.25
2023-05-13T09:42:16.917Z,6.97
2023-05-13T09:44:47.989Z,3.92
2023-05-13T09:47:16.626Z,6.70
2023-05-13T09:49:45.467Z,7.30
2023-05-13T09:52:17.302Z,6.93
2023-05-13T09:54:45.306Z,11.15
2023-05-13T09:57:14.073Z,4.90
2023-05-13T09:59:42.704Z,7.20
2023-05-13T10:02:10.644Z,6.82
2023-05-13T10:04:38.444Z,7.15
2023-05-13T10:07:07.955Z,8.02
2023-05-13T10:09:36.701Z,11.15
2023-05-13T10:12:07.699Z,6.22
2023-05-13T10:14:39.376Z,7.18
2023-05-13T10:17:07.893Z,9.45
2023-05-13T10:19:35.947Z,5.50
2023-05-13T10:22:03.886Z,7.88
2023-05-13T10:24:31.760Z,8.25
2023-05-13T10:26:59.569Z,6.70
2023-05-13T10:29:27.879Z,5.32
2023-05-13T10:31:56.278Z,5.82
2023-05-13T10:34:25.060Z,6.38
2023-05-13T10:36:55.711Z,9.30
2023-05-13T10:39:23.665Z,6.72
2023-05-13T10:41:51.919Z,6.00
2023-05-13T10:44:21.385Z,4.32
2023-05-13T10:46:49.451Z,5.18
2023-05-13T10:49:18.042Z,9.93
2023-05-13T10:51:47.551Z,9.20
2023-05-13T10:54:25.876Z,5.70
2023-05-13T10:57:00.117Z,5.97
2023-05-13T10:59:30.976Z,4.07
2023-05-13T11:02:01.762Z,5.32
2023-05-13T11:04:29.790Z,7.20
2023-05-13T11:07:14.661Z,5.18
2023-05-13T11:09:42.453Z,4.75
2023-05-13T11:12:15.823Z,5.43
2023-05-13T11:14:45.078Z,8.32
2023-05-13T11:17:13.395Z,6.43
2023-05-13T11:19:47.570Z,6.75
2023-05-13T11:22:17.005Z,6.47
2023-05-13T11:24:48.930Z,7.95
2023-05-13T11:27:21.735Z,6.32
2023-05-13T11:29:58.472Z,7.15
2023-05-13T11:33:03.018Z,5.25
2023-05-13T11:35:31.872Z,5.45
2023-05-13T11:38:01.288Z,6.18
2023-05-13T11:40:31.614Z,6.13
2023-05-13T11:43:00.966Z,6.97
2023-05-13T11:45:30.729Z,6.32
2023-05-13T11:47:59.283Z,11.75
2023-05-13T11:50:32.474Z,5.20
2023-05-13T11:53:01.153Z,6.20
2023-05-13T11:55:30.136Z,7.22
2023-05-13T11:57:59.369Z,7.80
2023-05-13T12:00:29.226Z,4.70
2023-05-13T12:02:57.964Z,4.50
2023-05-13T12:05:26.765Z,8.63
2023-05-13T12:07:58.453Z,9.87
2023-05-13T12:10:28.601Z,5.10
2023-05-13T12:12:56.696Z,3.80
2023-05-13T12:15:26.257Z,5.57
2023-05-13T12:17:54.919Z,5.95
2023-05-13T12:20:23.441Z,12.98
2023-05-13T12:22:52.669Z,6.78
2023-05-13T12:25:35.861Z,7.32
2023-05-13T12:28:22.402Z,12.07
2023-05-13T12:30:57.979Z,10.20
2023-05-13T12:33:26.870Z,4.18
2023-05-13T12:35:56.152Z,4.53
2023-05-13T12:38:24.715Z,3.60
2023-05-13T12:40:54.815Z,8.27
2023-05-13T12:45:57.671Z,5.97
2023-05-13T12:48:26.210Z,6.15
2023-05-13T12:50:53.972Z,4.80
2023-05-13T12:53:22.322Z,3.88
2023-05-13T12:55:52.608Z,5.93
2023-05-13T12:58:21.636Z,2.83
2023-05-13T13:00:50.274Z,6.85
2023-05-13T13:03:22.494Z,6.65
2023-05-13T13:05:52.670Z,8.15
2023-05-13T13:08:21.190Z,9.52
2023-05-13T13:10:48.781Z,3.75
2023-05-13T13:13:16.435Z,4.97
2023-05-13T13:15:47.664Z,9.20
2023-05-13T13:18:15.354Z,5.28
2023-05-13T13:20:43.033Z,6.47
2023-05-13T13:23:11.090Z,6.82
2023-05-13T13:25:39.101Z,6.55
2023-05-13T13:28:07.049Z,5.00
2023-05-13T13:30:35.226Z,5.47
2023-05-13T13:33:04.733Z,8.57
2023-05-13T13:35:32.420Z,5.28
2023-05-13T13:38:02.487Z,7.30
2023-05-13T13:40:30.656Z,7.25
2023-05-13T13:43:01.046Z,5.43
2023-05-13T13:45:28.934Z,7.43
2023-05-13T13:47:56.951Z,5.22
2023-05-13T13:50:24.866Z,4.50
2023-05-13T13:52:54.351Z,3.70
2023-05-13T13:55:23.306Z,3.60
2023-05-13T13:57:52.765Z,4.45
2023-05-13T14:00:22.300Z,4.95
2023-05-13T14:02:51.013Z,8.65
2023-05-13T14:05:22.652Z,2.83
2023-05-13T14:07:54.152Z,4.50
2023-05-13T14:10:23.995Z,3.53
2023-05-13T14:12:53.493Z,4.10
2023-05-13T14:15:23.001Z,7.40
2023-05-13T14:17:54.168Z,10.27
2023-05-13T14:20:25.544Z,4.78
2023-05-13T14:22:53.275Z,3.78
2023-05-13T14:25:21.514Z,3.97
2023-05-13T14:27:50.961Z,3.25
2023-05-13T14:30:18.703Z,7.80
2023-05-13T14:32:47.480Z,4.55
2023-05-13T14:35:16.728Z,3.97
2023-05-13T14:37:44.229Z,3.67
2023-05-13T14:40:11.899Z,4.65
2023-05-13T14:42:40.658Z,6.35
2023-05-13T14:45:10.854Z,4.63
2023-05-13T14:47:40.665Z,5.70
2023-05-13T14:50:12.313Z,4.53
2023-05-13T14:52:39.939Z,5.10
2023-05-13T14:55:08.618Z,5.43
2023-05-13T14:57:36.667Z,4.38
2023-05-13T15:00:07.533Z,5.95
2023-05-13T15:02:35.615Z,10.35
2023-05-13T15:05:03.749Z,7.05
2023-05-13T15:07:31.361Z,6.00
2023-05-13T15:10:01.413Z,5.90
2023-05-13T15:12:29.846Z,3.60
2023-05-13T15:14:58.151Z,4.75
2023-05-13T15:17:25.895Z,7.03
2023-05-13T15:19:53.544Z,2.97
2023-05-13T15:22:24.356Z,5.00
2023-05-13T15:24:52.191Z,4.68
2023-05-13T15:27:22.361Z,5.45
2023-05-13T15:32:23.344Z,6.28
2023-05-13T15:34:52.167Z,8.90
2023-05-13T15:37:25.172Z,9.93
2023-05-13T15:39:53.078Z,8.95
2023-05-13T15:42:23.002Z,10.50
2023-05-13T15:47:25.266Z,8.70
2023-05-13T15:49:57.326Z,9.88
2023-05-13T15:52:28.392Z,6.88
2023-05-13T15:54:56.197Z,4.18
2023-05-13T15:57:25.818Z,9.95
2023-05-13T15:59:53.529Z,4.75
2023-05-13T16:02:21.992Z,5.47
2023-05-13T16:04:50.439Z,8.85
2023-05-13T16:07:25.641Z,9.75
2023-05-13T16:09:53.533Z,9.43
2023-05-13T16:12:22.890Z,4.60
2023-05-13T16:14:52.561Z,8.18
2023-05-13T16:17:23.005Z,8.27
2023-05-13T16:19:51.722Z,6.95
2023-05-13T16:22:30.608Z,5.10
2023-05-13T16:25:00.137Z,12.05
2023-05-13T16:27:28.821Z,9.95
2023-05-13T16:29:58.154Z,7.00
2023-05-13T16:32:26.849Z,6.18
2023-05-13T16:34:55.241Z,6.47
2023-05-13T16:37:22.903Z,8.30
2023-05-13T16:39:51.367Z,8.35
2023-05-13T16:42:22.234Z,7.35
2023-05-13T16:44:52.633Z,8.27
2023-05-13T16:49:50.310Z,8.90
2023-05-13T16:52:18.109Z,5.15
2023-05-13T16:54:45.895Z,9.95
2023-05-13T16:57:13.569Z,7.68
2023-05-13T16:59:41.573Z,7.18
2023-05-13T17:02:09.249Z,9.45
2023-05-13T17:04:36.947Z,8.32
2023-05-13T17:07:04.679Z,5.88
2023-05-13T17:09:32.395Z,4.32
2023-05-13T17:12:00.156Z,6.30
2023-05-13T17:14:28.268Z,7.68
2023-05-13T17:16:56.173Z,7.75
2023-05-13T17:19:24.220Z,6.93
2023-05-13T17:21:52.782Z,5.85
2023-05-13T17:24:23.351Z,6.47
2023-05-13T17:26:52.317Z,11.88
2023-05-13T17:29:22.103Z,7.68
2023-05-13T17:31:51.915Z,5.35
2023-05-13T17:34:21.604Z,7.82
2023-05-13T17:36:50.453Z,5.75
2023-05-13T17:39:18.074Z,14.93
2023-05-13T17:41:46.228Z,7.35
2023-05-13T17:44:15.023Z,4.03
2023-05-13T17:46:45.172Z,4.82
2023-05-13T17:49:12.887Z,10.75
2023-05-13T17:51:42.113Z,7.88
2023-05-13T17:54:11.390Z,5.30
2023-05-13T17:56:39.181Z,6.10
2023-05-13T17:59:08.090Z,5.57
2023-05-13T18:01:36.302Z,5.28
2023-05-13T18:04:04.200Z,5.85
2023-05-13T18:06:31.728Z,9.25
2023-05-13T18:08:59.860Z,4.38
2023-05-13T18:11:27.575Z,4.70
2023-05-13T18:13:55.202Z,8.55
2023-05-13T18:16:25.759Z,7.10
2023-05-13T18:18:56.563Z,7.70
2023-05-13T18:21:24.547Z,5.38
2023-05-13T18:23:53.947Z,7.15
2023-05-13T18:26:23.237Z,9.13
2023-05-13T18:28:53.875Z,7.53
2023-05-13T18:31:24.369Z,5.30
2023-05-13T18:33:53.197Z,6.50
2023-05-13T18:36:21.504Z,5.97
2023-05-13T18:38:52.151Z,5.15
2023-05-13T18:41:20.385Z,11.43
2023-05-13T18:43:48.521Z,5.40
2023-05-13T18:46:16.542Z,9.10
2023-05-13T18:48:44.573Z,6.88
2023-05-13T18:51:12.338Z,5.63
2023-05-13T18:53:39.997Z,7.80
2023-05-13T18:56:07.701Z,7.20
2023-05-13T18:58:35.542Z,10.85
2023-05-13T19:01:03.205Z,7.75
2023-05-13T19:03:32.468Z,4.93
2023-05-13T19:06:01.195Z,8.30
2023-05-13T19:08:28.860Z,8.00
2023-05-13T19:10:56.693Z,6.05
2023-05-13T19:13:33.182Z,7.72
2023-05-13T19:16:04.050Z,11.95
2023-05-13T19:18:32.071Z,7.20
2023-05-13T19:21:00.043Z,7.63
2023-05-13T19:23:27.811Z,10.57
2023-05-13T19:25:55.573Z,11.10
2023-05-13T19:28:23.634Z,6.97
2023-05-13T19:30:54.188Z,6.18
2023-05-13T19:33:22.693Z,5.22
2023-05-13T19:35:51.481Z,11.30
2023-05-13T19:38:21.186Z,5.60
2023-05-13T19:40:57.788Z,5.63
2023-05-13T19:43:30.917Z,5.53
2023-05-13T19:45:58.631Z,7.95
2023-05-13T19:48:27.763Z,9.18
2023-05-13T19:50:58.580Z,6.32
2023-05-13T19:53:26.751Z,9.32
2023-05-13T19:55:54.631Z,5.57
2023-05-13T19:58:23.267Z,10.35
2023-05-13T20:00:53.724Z,10.68
2023-05-13T20:03:24.745Z,5.95
2023-05-13T20:05:54.235Z,12.52
2023-05-13T20:08:23.021Z,6.30
2023-05-13T20:10:51.577Z,7.75
2023-05-13T20:13:20.464Z,6.43
2023-05-13T20:15:48.012Z,9.88
2023-05-13T20:18:17.115Z,7.65
2023-05-13T20:20:47.074Z,9.30
2023-05-13T20:23:14.855Z,7.53
2023-05-13T20:25:42.297Z,7.15
2023-05-13T20:28:10.031Z,9.18
2023-05-13T20:30:37.999Z,9.32
2023-05-13T20:33:06.526Z,7.63
2023-05-13T20:35:34.288Z,8.23
2023-05-13T20:38:01.874Z,8.52
2023-05-13T20:40:29.679Z,11.93
2023-05-13T20:42:59.316Z,8.88
2023-05-13T20:45:26.970Z,12.27
2023-05-13T20:47:59.359Z,9.02
2023-05-13T20:50:28.084Z,6.40
2023-05-13T20:52:59.414Z,6.82
2023-05-13T20:55:27.027Z,7.18
2023-05-13T20:57:54.734Z,14.80
2023-05-13T21:00:22.751Z,11.77
2023-05-13T21:02:51.993Z,10.43
2023-05-13T21:05:20.515Z,8.63
2023-05-13T21:07:48.572Z,11.32
2023-05-13T21:10:16.250Z,10.15
2023-05-13T21:12:47.840Z,9.55
2023-05-13T21:15:16.761Z,8.55
2023-05-13T21:17:44.325Z,9.95
2023-05-13T21:20:13.054Z,7.30
2023-05-13T21:22:40.654Z,6.47
2023-05-13T21:25:08.692Z,8.60
2023-05-13T21:27:36.560Z,8.88
2023-05-13T21:30:06.042Z,12.45
2023-05-13T21:32:34.938Z,8.60
2023-05-13T21:35:02.590Z,9.60
2023-05-13T21:37:30.241Z,7.68
2023-05-13T21:39:57.845Z,10.15
2023-05-13T21:42:29.355Z,6.70
2023-05-13T21:44:57.592Z,7.40
2023-05-13T21:47:26.063Z,8.93
2023-05-13T21:49:53.622Z,7.45
2023-05-13T21:52:23.710Z,12.43
2023-05-13T21:54:53.058Z,11.98
2023-05-13T21:57:22.173Z,13.63
2023-05-13T21:59:50.778Z,11.88
2023-05-13T22:02:18.519Z,12.38
2023-05-13T22:04:46.516Z,8.43
2023-05-13T22:07:14.238Z,11.07
2023-05-13T22:09:45.027Z,15.02
2023-05-13T22:12:12.726Z,10.68
2023-05-13T22:14:40.767Z,10.82
2023-05-13T22:17:10.101Z,13.38
2023-05-13T22:19:39.062Z,6.53
2023-05-13T22:22:06.619Z,11.57
2023-05-13T22:24:35.089Z,11.27
2023-05-13T22:27:02.701Z,7.78
2023-05-13T22:29:30.498Z,7.43
2023-05-13T22:31:58.296Z,11.43
2023-05-13T22:34:27.628Z,11.15
2023-05-13T22:36:55.366Z,9.57
2023-05-13T22:39:23.440Z,9.05
2023-05-13T22:41:55.375Z,10.50
2023-05-13T22:44:26.569Z,11.85
2023-05-13T22:46:54.777Z,17.63
2023-05-13T22:49:25.195Z,14.63
2023-05-13T22:51:52.913Z,16.88
2023-05-13T22:54:22.363Z,12.27
2023-05-13T22:56:51.005Z,16.40
2023-05-13T22:59:18.749Z,10.00
2023-05-13T23:01:46.653Z,10.50
2023-05-13T23:04:14.355Z,12.93
2023-05-13T23:06:42.432Z,12.27
2023-05-13T23:09:13.956Z,11.13
2023-05-13T23:11:47.100Z,9.65
2023-05-13T23:14:30.508Z,10.23
2023-05-13T23:16:58.050Z,12.15
2023-05-13T23:19:27.039Z,10.88
2023-05-13T23:22:06.534Z,8.75
2023-05-13T23:24:35.020Z,12.88
2023-05-13T23:27:11.349Z,9.93
2023-05-13T23:29:42.421Z,8.65
2023-05-13T23:32:12.480Z,14.07
2023-05-13T23:34:40.106Z,14.48
2023-05-13T23:37:07.930Z,11.65
2023-05-13T23:39:36.146Z,14.23
2023-05-13T23:42:03.809Z,9.02
2023-05-13T23:44:31.349Z,14.98
2023-05-13T23:46:58.887Z,13.93
2023-05-13T23:49:28.388Z,12.25
2023-05-13T23:51:56.107Z,9.98
2023-05-13T23:54:25.899Z,9.98
2023-05-13T23:56:53.557Z,13.27
2023-05-13T23:59:33.015Z,13.02
